Terminal Aerodrome Forecast
Issued by NWS Grand Junction, CO

Home | Current Version | Previous Version | Text Only | Print | Product List | Glossary On
Versions: 1 2 3 4 5 6 7 8 9 10 11 12 13 14 15 16 17 18 19 20 21 22 23 24 25 26 27 28 29 30 31 32 33
000
FTUS45 KGJT 051129
TAFGJT
TAF
KGJT 051129Z 0512/0612 13014KT P6SM BKN070 BKN090
     FM051300 14008KT P6SM SCT090 SCT150
     FM051800 20009KT P6SM SCT100 BKN200
     FM052000 20010G20KT P6SM VCSH SCT090 BKN150
     FM060300 12009KT P6SM FEW090 SCT150
     FM060600 12012KT P6SM SCT150=

USA.gov is the U.S. government's official web portal to all federal, state and local government web resources and services.